sensor_id;sensor_type;location;lat;lon;timestamp;temperature;humidity
21493;DHT22;10908;50.690;4.400;2022-07-22T00:00:18;16.40;82.00
21493;DHT22;10908;50.690;4.400;2022-07-22T00:02:43;16.30;82.40
21493;DHT22;10908;50.690;4.400;2022-07-22T00:05:09;16.30;82.50
21493;DHT22;10908;50.690;4.400;2022-07-22T00:07:37;16.40;82.30
21493;DHT22;10908;50.690;4.400;2022-07-22T00:10:05;16.30;82.10
21493;DHT22;10908;50.690;4.400;2022-07-22T00:12:30;16.30;82.40
21493;DHT22;10908;50.690;4.400;2022-07-22T00:14:56;16.30;82.30
21493;DHT22;10908;50.690;4.400;2022-07-22T00:17:22;16.30;82.10
21493;DHT22;10908;50.690;4.400;2022-07-22T00:19:47;16.20;82.20
21493;DHT22;10908;50.690;4.400;2022-07-22T00:22:13;16.20;82.40
21493;DHT22;10908;50.690;4.400;2022-07-22T00:24:39;16.20;82.40
21493;DHT22;10908;50.690;4.400;2022-07-22T00:27:04;16.10;82.40
21493;DHT22;10908;50.690;4.400;2022-07-22T00:29:30;16.00;83.00
21493;DHT22;10908;50.690;4.400;2022-07-22T00:31:59;16.10;83.20
21493;DHT22;10908;50.690;4.400;2022-07-22T00:34:24;16.00;83.20
21493;DHT22;10908;50.690;4.400;2022-07-22T00:36:50;16.00;83.30
21493;DHT22;10908;50.690;4.400;2022-07-22T00:39:15;16.00;83.00
21493;DHT22;10908;50.690;4.400;2022-07-22T00:41:41;15.90;82.70
21493;DHT22;10908;50.690;4.400;2022-07-22T00:44:08;15.90;82.70
21493;DHT22;10908;50.690;4.400;2022-07-22T00:46:35;15.80;83.20
21493;DHT22;10908;50.690;4.400;2022-07-22T00:49:01;15.70;83.80
21493;DHT22;10908;50.690;4.400;2022-07-22T00:51:28;15.60;84.20
21493;DHT22;10908;50.690;4.400;2022-07-22T00:53:56;15.70;83.90
21493;DHT22;10908;50.690;4.400;2022-07-22T00:56:26;15.70;83.60
21493;DHT22;10908;50.690;4.400;2022-07-22T00:58:56;15.70;83.60
21493;DHT22;10908;50.690;4.400;2022-07-22T01:01:23;15.70;83.50
21493;DHT22;10908;50.690;4.400;2022-07-22T01:03:49;15.60;83.60
21493;DHT22;10908;50.690;4.400;2022-07-22T01:06:15;15.60;84.00
21493;DHT22;10908;50.690;4.400;2022-07-22T01:08:42;15.60;83.80
21493;DHT22;10908;50.690;4.400;2022-07-22T01:11:13;15.70;83.50
21493;DHT22;10908;50.690;4.400;2022-07-22T01:13:43;15.60;83.10
21493;DHT22;10908;50.690;4.400;2022-07-22T01:16:10;15.60;83.10
21493;DHT22;10908;50.690;4.400;2022-07-22T01:18:37;15.60;82.90
21493;DHT22;10908;50.690;4.400;2022-07-22T01:21:04;15.70;82.70
21493;DHT22;10908;50.690;4.400;2022-07-22T01:23:30;15.60;82.90
21493;DHT22;10908;50.690;4.400;2022-07-22T01:25:56;15.40;83.40
21493;DHT22;10908;50.690;4.400;2022-07-22T01:28:22;15.50;83.40
21493;DHT22;10908;50.690;4.400;2022-07-22T01:30:48;15.50;83.40
21493;DHT22;10908;50.690;4.400;2022-07-22T01:33:16;15.40;83.20
21493;DHT22;10908;50.690;4.400;2022-07-22T01:35:42;15.50;83.30
21493;DHT22;10908;50.690;4.400;2022-07-22T01:38:08;15.40;83.20
21493;DHT22;10908;50.690;4.400;2022-07-22T01:40:33;15.50;83.30
21493;DHT22;10908;50.690;4.400;2022-07-22T01:42:59;15.40;83.40
21493;DHT22;10908;50.690;4.400;2022-07-22T01:45:25;15.50;83.40
21493;DHT22;10908;50.690;4.400;2022-07-22T01:47:50;15.60;83.30
21493;DHT22;10908;50.690;4.400;2022-07-22T01:50:16;15.80;83.00
21493;DHT22;10908;50.690;4.400;2022-07-22T01:52:42;15.80;82.30
21493;DHT22;10908;50.690;4.400;2022-07-22T01:55:09;15.80;82.40
21493;DHT22;10908;50.690;4.400;2022-07-22T01:57:39;15.70;82.20
21493;DHT22;10908;50.690;4.400;2022-07-22T02:00:07;15.60;82.40
21493;DHT22;10908;50.690;4.400;2022-07-22T02:02:34;15.60;82.60
21493;DHT22;10908;50.690;4.400;2022-07-22T02:05:00;15.60;82.70
21493;DHT22;10908;50.690;4.400;2022-07-22T02:07:26;15.60;82.90
21493;DHT22;10908;50.690;4.400;2022-07-22T02:09:52;15.80;83.00
21493;DHT22;10908;50.690;4.400;2022-07-22T02:12:19;15.80;82.20
21493;DHT22;10908;50.690;4.400;2022-07-22T02:14:45;15.70;82.40
21493;DHT22;10908;50.690;4.400;2022-07-22T02:17:11;15.70;82.70
21493;DHT22;10908;50.690;4.400;2022-07-22T02:19:37;15.60;82.80
21493;DHT22;10908;50.690;4.400;2022-07-22T02:22:03;15.60;82.90
21493;DHT22;10908;50.690;4.400;2022-07-22T02:24:29;15.60;82.70
21493;DHT22;10908;50.690;4.400;2022-07-22T02:26:55;15.70;82.60
21493;DHT22;10908;50.690;4.400;2022-07-22T02:29:20;15.60;82.30
21493;DHT22;10908;50.690;4.400;2022-07-22T02:31:46;15.40;83.00
21493;DHT22;10908;50.690;4.400;2022-07-22T02:34:12;15.40;83.30
21493;DHT22;10908;50.690;4.400;2022-07-22T02:36:37;15.40;83.20
21493;DHT22;10908;50.690;4.400;2022-07-22T02:39:03;15.40;83.10
21493;DHT22;10908;50.690;4.400;2022-07-22T02:41:29;15.30;83.30
21493;DHT22;10908;50.690;4.400;2022-07-22T02:43:55;15.30;83.30
21493;DHT22;10908;50.690;4.400;2022-07-22T02:46:21;15.30;83.40
21493;DHT22;10908;50.690;4.400;2022-07-22T02:48:47;15.30;83.50
21493;DHT22;10908;50.690;4.400;2022-07-22T02:51:13;15.20;83.30
21493;DHT22;10908;50.690;4.400;2022-07-22T02:53:38;15.10;83.50
21493;DHT22;10908;50.690;4.400;2022-07-22T02:56:04;15.00;83.50
21493;DHT22;10908;50.690;4.400;2022-07-22T02:58:30;15.00;83.60
21493;DHT22;10908;50.690;4.400;2022-07-22T03:00:56;15.00;83.50
21493;DHT22;10908;50.690;4.400;2022-07-22T03:03:21;15.20;83.40
21493;DHT22;10908;50.690;4.400;2022-07-22T03:05:47;15.20;82.80
21493;DHT22;10908;50.690;4.400;2022-07-22T03:08:13;15.00;82.50
21493;DHT22;10908;50.690;4.400;2022-07-22T03:10:38;14.90;82.90
21493;DHT22;10908;50.690;4.400;2022-07-22T03:13:04;14.90;83.50
21493;DHT22;10908;50.690;4.400;2022-07-22T03:15:30;14.90;83.60
21493;DHT22;10908;50.690;4.400;2022-07-22T03:17:56;14.90;83.10
21493;DHT22;10908;50.690;4.400;2022-07-22T03:20:21;14.90;83.20
21493;DHT22;10908;50.690;4.400;2022-07-22T03:22:47;14.80;83.30
21493;DHT22;10908;50.690;4.400;2022-07-22T03:25:12;14.80;83.60
21493;DHT22;10908;50.690;4.400;2022-07-22T03:27:38;14.70;83.60
21493;DHT22;10908;50.690;4.400;2022-07-22T03:30:05;14.70;83.70
21493;DHT22;10908;50.690;4.400;2022-07-22T03:32:31;14.70;83.60
21493;DHT22;10908;50.690;4.400;2022-07-22T03:34:57;14.80;83.60
21493;DHT22;10908;50.690;4.400;2022-07-22T03:37:22;14.60;83.50
21493;DHT22;10908;50.690;4.400;2022-07-22T03:39:48;14.60;83.40
21493;DHT22;10908;50.690;4.400;2022-07-22T03:42:14;14.60;83.60
21493;DHT22;10908;50.690;4.400;2022-07-22T03:44:39;14.50;84.10
21493;DHT22;10908;50.690;4.400;2022-07-22T03:47:05;14.60;84.50
21493;DHT22;10908;50.690;4.400;2022-07-22T03:49:31;14.60;84.50
21493;DHT22;10908;50.690;4.400;2022-07-22T03:51:57;14.80;83.90
21493;DHT22;10908;50.690;4.400;2022-07-22T03:54:23;14.70;83.30
21493;DHT22;10908;50.690;4.400;2022-07-22T03:56:49;14.70;83.70
21493;DHT22;10908;50.690;4.400;2022-07-22T03:59:15;14.70;84.10
21493;DHT22;10908;50.690;4.400;2022-07-22T04:01:41;14.70;84.00
21493;DHT22;10908;50.690;4.400;2022-07-22T04:04:07;14.60;84.10
21493;DHT22;10908;50.690;4.400;2022-07-22T04:06:32;14.70;83.90
21493;DHT22;10908;50.690;4.400;2022-07-22T04:08:58;14.70;84.20
21493;DHT22;10908;50.690;4.400;2022-07-22T04:11:24;14.90;84.00
21493;DHT22;10908;50.690;4.400;2022-07-22T04:13:50;14.90;83.90
21493;DHT22;10908;50.690;4.400;2022-07-22T04:16:16;15.00;83.90
21493;DHT22;10908;50.690;4.400;2022-07-22T04:18:41;15.00;83.60
21493;DHT22;10908;50.690;4.400;2022-07-22T04:21:07;15.20;84.00
21493;DHT22;10908;50.690;4.400;2022-07-22T04:23:33;15.20;83.60
21493;DHT22;10908;50.690;4.400;2022-07-22T04:25:59;15.20;83.80
21493;DHT22;10908;50.690;4.400;2022-07-22T04:28:24;15.30;83.80
21493;DHT22;10908;50.690;4.400;2022-07-22T04:30:50;15.30;84.00
21493;DHT22;10908;50.690;4.400;2022-07-22T04:33:15;15.60;83.80
21493;DHT22;10908;50.690;4.400;2022-07-22T04:35:41;15.80;82.80
21493;DHT22;10908;50.690;4.400;2022-07-22T04:38:07;16.10;81.80
21493;DHT22;10908;50.690;4.400;2022-07-22T04:40:32;16.20;81.40
21493;DHT22;10908;50.690;4.400;2022-07-22T04:42:58;16.30;80.60
21493;DHT22;10908;50.690;4.400;2022-07-22T04:45:23;16.50;80.60
21493;DHT22;10908;50.690;4.400;2022-07-22T04:47:49;16.90;79.50
21493;DHT22;10908;50.690;4.400;2022-07-22T04:50:15;17.10;78.30
21493;DHT22;10908;50.690;4.400;2022-07-22T04:52:41;17.40;77.60
21493;DHT22;10908;50.690;4.400;2022-07-22T04:55:06;17.40;76.90
21493;DHT22;10908;50.690;4.400;2022-07-22T04:57:32;17.40;77.10
21493;DHT22;10908;50.690;4.400;2022-07-22T04:59:58;18.00;75.80
21493;DHT22;10908;50.690;4.400;2022-07-22T05:02:23;18.20;74.60
21493;DHT22;10908;50.690;4.400;2022-07-22T05:04:49;17.90;74.80
21493;DHT22;10908;50.690;4.400;2022-07-22T05:07:15;17.60;76.00
21493;DHT22;10908;50.690;4.400;2022-07-22T05:09:40;17.30;77.10
21493;DHT22;10908;50.690;4.400;2022-07-22T05:12:06;16.80;79.10
21493;DHT22;10908;50.690;4.400;2022-07-22T05:14:32;16.40;80.20
21493;DHT22;10908;50.690;4.400;2022-07-22T05:16:58;16.40;81.60
21493;DHT22;10908;50.690;4.400;2022-07-22T05:19:23;16.40;81.20
21493;DHT22;10908;50.690;4.400;2022-07-22T05:21:49;16.40;81.60
21493;DHT22;10908;50.690;4.400;2022-07-22T05:24:15;16.40;81.90
21493;DHT22;10908;50.690;4.400;2022-07-22T05:26:40;16.30;82.00
21493;DHT22;10908;50.690;4.400;2022-07-22T05:29:06;16.40;82.60
21493;DHT22;10908;50.690;4.400;2022-07-22T05:31:32;16.50;82.70
21493;DHT22;10908;50.690;4.400;2022-07-22T05:33:58;16.50;82.30
21493;DHT22;10908;50.690;4.400;2022-07-22T05:36:23;16.70;82.20
21493;DHT22;10908;50.690;4.400;2022-07-22T05:38:49;16.60;81.90
21493;DHT22;10908;50.690;4.400;2022-07-22T05:41:15;16.50;82.40
21493;DHT22;10908;50.690;4.400;2022-07-22T05:43:41;16.60;83.20
21493;DHT22;10908;50.690;4.400;2022-07-22T05:46:07;16.70;82.50
21493;DHT22;10908;50.690;4.400;2022-07-22T05:48:33;16.60;82.40
21493;DHT22;10908;50.690;4.400;2022-07-22T05:50:58;16.50;83.30
21493;DHT22;10908;50.690;4.400;2022-07-22T05:53:25;16.40;83.30
21493;DHT22;10908;50.690;4.400;2022-07-22T05:55:51;16.10;84.30
21493;DHT22;10908;50.690;4.400;2022-07-22T05:58:16;16.10;85.10
21493;DHT22;10908;50.690;4.400;2022-07-22T06:00:42;16.00;85.50
21493;DHT22;10908;50.690;4.400;2022-07-22T06:03:08;16.10;85.80
21493;DHT22;10908;50.690;4.400;2022-07-22T06:05:34;16.30;86.00
21493;DHT22;10908;50.690;4.400;2022-07-22T06:08:01;16.80;85.00
21493;DHT22;10908;50.690;4.400;2022-07-22T06:10:27;16.90;83.70
21493;DHT22;10908;50.690;4.400;2022-07-22T06:12:52;17.00;83.40
21493;DHT22;10908;50.690;4.400;2022-07-22T06:15:18;16.80;83.10
21493;DHT22;10908;50.690;4.400;2022-07-22T06:17:43;17.00;83.50
21493;DHT22;10908;50.690;4.400;2022-07-22T06:20:09;17.10;83.40
21493;DHT22;10908;50.690;4.400;2022-07-22T06:22:35;17.30;83.00
21493;DHT22;10908;50.690;4.400;2022-07-22T06:25:00;17.30;82.00
21493;DHT22;10908;50.690;4.400;2022-07-22T06:27:26;17.30;81.70
21493;DHT22;10908;50.690;4.400;2022-07-22T06:29:52;17.40;82.20
21493;DHT22;10908;50.690;4.400;2022-07-22T06:32:17;17.40;82.10
21493;DHT22;10908;50.690;4.400;2022-07-22T06:34:43;17.60;81.40
21493;DHT22;10908;50.690;4.400;2022-07-22T06:37:08;17.70;80.60
21493;DHT22;10908;50.690;4.400;2022-07-22T06:39:34;17.60;80.50
21493;DHT22;10908;50.690;4.400;2022-07-22T06:41:59;17.80;80.10
21493;DHT22;10908;50.690;4.400;2022-07-22T06:44:25;17.90;79.40
21493;DHT22;10908;50.690;4.400;2022-07-22T06:46:51;17.90;78.10
21493;DHT22;10908;50.690;4.400;2022-07-22T06:49:16;17.70;78.90
21493;DHT22;10908;50.690;4.400;2022-07-22T06:51:42;17.70;80.00
21493;DHT22;10908;50.690;4.400;2022-07-22T06:54:08;17.70;79.30
21493;DHT22;10908;50.690;4.400;2022-07-22T06:56:34;17.80;78.70
21493;DHT22;10908;50.690;4.400;2022-07-22T06:58:59;17.80;78.80
21493;DHT22;10908;50.690;4.400;2022-07-22T07:01:25;18.00;77.40
21493;DHT22;10908;50.690;4.400;2022-07-22T07:03:51;18.20;77.10
21493;DHT22;10908;50.690;4.400;2022-07-22T07:06:17;18.60;76.50
21493;DHT22;10908;50.690;4.400;2022-07-22T07:08:42;18.50;74.40
21493;DHT22;10908;50.690;4.400;2022-07-22T07:11:08;18.30;74.70
21493;DHT22;10908;50.690;4.400;2022-07-22T07:13:33;18.30;74.60
21493;DHT22;10908;50.690;4.400;2022-07-22T07:15:59;18.00;74.80
21493;DHT22;10908;50.690;4.400;2022-07-22T07:18:25;17.90;75.40
21493;DHT22;10908;50.690;4.400;2022-07-22T07:20:51;17.80;74.60
21493;DHT22;10908;50.690;4.400;2022-07-22T07:23:16;17.80;74.30
21493;DHT22;10908;50.690;4.400;2022-07-22T07:25:42;18.20;73.60
21493;DHT22;10908;50.690;4.400;2022-07-22T07:28:08;18.10;73.00
21493;DHT22;10908;50.690;4.400;2022-07-22T07:30:34;18.00;73.10
21493;DHT22;10908;50.690;4.400;2022-07-22T07:33:00;18.00;72.20
21493;DHT22;10908;50.690;4.400;2022-07-22T07:35:27;18.00;72.50
21493;DHT22;10908;50.690;4.400;2022-07-22T07:37:53;18.30;72.00
21493;DHT22;10908;50.690;4.400;2022-07-22T07:40:19;18.30;72.50
21493;DHT22;10908;50.690;4.400;2022-07-22T07:42:45;18.40;71.20
21493;DHT22;10908;50.690;4.400;2022-07-22T07:45:11;18.30;71.40
21493;DHT22;10908;50.690;4.400;2022-07-22T07:47:37;18.20;71.20
21493;DHT22;10908;50.690;4.400;2022-07-22T07:50:06;18.30;71.30
21493;DHT22;10908;50.690;4.400;2022-07-22T07:52:37;18.30;70.90
21493;DHT22;10908;50.690;4.400;2022-07-22T07:55:04;18.40;71.70
21493;DHT22;10908;50.690;4.400;2022-07-22T07:57:30;18.20;71.50
21493;DHT22;10908;50.690;4.400;2022-07-22T07:59:56;18.40;71.70
21493;DHT22;10908;50.690;4.400;2022-07-22T08:02:21;18.30;72.10
21493;DHT22;10908;50.690;4.400;2022-07-22T08:04:47;18.40;72.10
21493;DHT22;10908;50.690;4.400;2022-07-22T08:07:14;18.50;71.60
21493;DHT22;10908;50.690;4.400;2022-07-22T08:09:40;18.50;70.60
21493;DHT22;10908;50.690;4.400;2022-07-22T08:12:06;18.50;70.60
21493;DHT22;10908;50.690;4.400;2022-07-22T08:14:32;18.60;71.30
21493;DHT22;10908;50.690;4.400;2022-07-22T08:16:57;18.30;71.40
21493;DHT22;10908;50.690;4.400;2022-07-22T08:19:23;18.60;71.30
21493;DHT22;10908;50.690;4.400;2022-07-22T08:21:49;18.90;70.30
21493;DHT22;10908;50.690;4.400;2022-07-22T08:24:15;19.10;70.50
21493;DHT22;10908;50.690;4.400;2022-07-22T08:26:40;18.90;69.40
21493;DHT22;10908;50.690;4.400;2022-07-22T08:29:06;18.60;70.10
21493;DHT22;10908;50.690;4.400;2022-07-22T08:31:35;18.80;70.60
21493;DHT22;10908;50.690;4.400;2022-07-22T08:34:02;18.80;69.30
21493;DHT22;10908;50.690;4.400;2022-07-22T08:36:28;19.00;69.80
21493;DHT22;10908;50.690;4.400;2022-07-22T08:38:54;19.20;69.80
21493;DHT22;10908;50.690;4.400;2022-07-22T08:41:21;19.30;69.60
21493;DHT22;10908;50.690;4.400;2022-07-22T08:43:48;19.50;68.90
21493;DHT22;10908;50.690;4.400;2022-07-22T08:46:14;19.70;67.60
21493;DHT22;10908;50.690;4.400;2022-07-22T08:48:40;19.50;67.80
21493;DHT22;10908;50.690;4.400;2022-07-22T08:51:06;19.70;68.10
21493;DHT22;10908;50.690;4.400;2022-07-22T08:53:32;19.90;67.50
21493;DHT22;10908;50.690;4.400;2022-07-22T08:55:58;19.90;67.10
21493;DHT22;10908;50.690;4.400;2022-07-22T08:58:25;20.10;67.20
21493;DHT22;10908;50.690;4.400;2022-07-22T09:01:12;20.50;64.50
21493;DHT22;10908;50.690;4.400;2022-07-22T09:03:50;20.90;64.10
21493;DHT22;10908;50.690;4.400;2022-07-22T09:06:18;21.20;63.50
21493;DHT22;10908;50.690;4.400;2022-07-22T09:11:27;20.60;62.90
21493;DHT22;10908;50.690;4.400;2022-07-22T09:13:59;20.50;63.90
21493;DHT22;10908;50.690;4.400;2022-07-22T09:16:47;20.40;62.90
21493;DHT22;10908;50.690;4.400;2022-07-22T09:19:14;20.30;63.90
21493;DHT22;10908;50.690;4.400;2022-07-22T09:21:45;19.80;65.10
21493;DHT22;10908;50.690;4.400;2022-07-22T09:24:28;19.40;65.50
21493;DHT22;10908;50.690;4.400;2022-07-22T09:26:54;19.60;66.90
21493;DHT22;10908;50.690;4.400;2022-07-22T09:29:21;20.10;65.10
21493;DHT22;10908;50.690;4.400;2022-07-22T09:31:50;20.00;64.80
21493;DHT22;10908;50.690;4.400;2022-07-22T09:34:31;19.80;66.10
21493;DHT22;10908;50.690;4.400;2022-07-22T09:36:59;20.40;65.10
21493;DHT22;10908;50.690;4.400;2022-07-22T09:39:27;20.80;64.50
21493;DHT22;10908;50.690;4.400;2022-07-22T09:42:01;20.60;62.70
21493;DHT22;10908;50.690;4.400;2022-07-22T09:44:27;20.60;63.90
21493;DHT22;10908;50.690;4.400;2022-07-22T09:46:53;20.40;64.00
21493;DHT22;10908;50.690;4.400;2022-07-22T09:49:37;20.40;63.50
21493;DHT22;10908;50.690;4.400;2022-07-22T09:52:06;20.90;62.90
21493;DHT22;10908;50.690;4.400;2022-07-22T09:54:32;20.90;61.40
21493;DHT22;10908;50.690;4.400;2022-07-22T09:56:58;20.70;62.60
21493;DHT22;10908;50.690;4.400;2022-07-22T09:59:24;20.30;62.50
21493;DHT22;10908;50.690;4.400;2022-07-22T10:01:57;20.10;64.20
21493;DHT22;10908;50.690;4.400;2022-07-22T10:04:24;20.10;64.00
21493;DHT22;10908;50.690;4.400;2022-07-22T10:06:51;20.40;63.30
21493;DHT22;10908;50.690;4.400;2022-07-22T10:09:20;21.00;64.20
21493;DHT22;10908;50.690;4.400;2022-07-22T10:11:47;21.40;61.40
21493;DHT22;10908;50.690;4.400;2022-07-22T10:14:14;21.80;61.70
21493;DHT22;10908;50.690;4.400;2022-07-22T10:16:43;22.10;60.20
21493;DHT22;10908;50.690;4.400;2022-07-22T10:19:10;21.90;60.00
21493;DHT22;10908;50.690;4.400;2022-07-22T10:21:36;21.90;60.90
21493;DHT22;10908;50.690;4.400;2022-07-22T10:24:21;21.80;59.00
21493;DHT22;10908;50.690;4.400;2022-07-22T10:26:54;22.00;59.90
21493;DHT22;10908;50.690;4.400;2022-07-22T10:29:39;22.20;60.20
21493;DHT22;10908;50.690;4.400;2022-07-22T10:40:17;22.50;58.30
21493;DHT22;10908;50.690;4.400;2022-07-22T10:43:09;21.60;61.00
21493;DHT22;10908;50.690;4.400;2022-07-22T10:48:07;21.80;62.30
21493;DHT22;10908;50.690;4.400;2022-07-22T10:53:01;22.00;59.20
21493;DHT22;10908;50.690;4.400;2022-07-22T10:55:27;22.00;59.10
21493;DHT22;10908;50.690;4.400;2022-07-22T10:57:53;22.10;58.80
21493;DHT22;10908;50.690;4.400;2022-07-22T11:00:19;22.20;57.90
21493;DHT22;10908;50.690;4.400;2022-07-22T11:02:44;21.80;58.70
21493;DHT22;10908;50.690;4.400;2022-07-22T11:05:10;21.80;59.60
21493;DHT22;10908;50.690;4.400;2022-07-22T11:07:46;21.80;60.10
21493;DHT22;10908;50.690;4.400;2022-07-22T11:10:17;21.70;60.00
21493;DHT22;10908;50.690;4.400;2022-07-22T11:12:44;21.70;59.90
21493;DHT22;10908;50.690;4.400;2022-07-22T11:15:10;21.40;61.60
21493;DHT22;10908;50.690;4.400;2022-07-22T11:17:38;21.70;60.50
21493;DHT22;10908;50.690;4.400;2022-07-22T11:20:09;21.80;60.30
21493;DHT22;10908;50.690;4.400;2022-07-22T11:22:37;21.80;60.40
21493;DHT22;10908;50.690;4.400;2022-07-22T11:25:09;21.80;59.80
21493;DHT22;10908;50.690;4.400;2022-07-22T11:27:35;22.00;59.60
21493;DHT22;10908;50.690;4.400;2022-07-22T11:30:01;21.80;59.40
21493;DHT22;10908;50.690;4.400;2022-07-22T11:32:30;21.80;59.20
21493;DHT22;10908;50.690;4.400;2022-07-22T11:34:57;22.00;59.30
21493;DHT22;10908;50.690;4.400;2022-07-22T11:37:24;22.00;58.90
21493;DHT22;10908;50.690;4.400;2022-07-22T11:39:58;22.10;59.00
21493;DHT22;10908;50.690;4.400;2022-07-22T11:42:27;22.30;59.20
21493;DHT22;10908;50.690;4.400;2022-07-22T11:44:52;22.60;59.30
21493;DHT22;10908;50.690;4.400;2022-07-22T11:47:18;22.70;58.80
21493;DHT22;10908;50.690;4.400;2022-07-22T11:49:46;22.70;58.00
21493;DHT22;10908;50.690;4.400;2022-07-22T11:52:13;22.80;58.70
21493;DHT22;10908;50.690;4.400;2022-07-22T11:54:40;23.00;57.30
21493;DHT22;10908;50.690;4.400;2022-07-22T11:57:07;23.30;57.60
21493;DHT22;10908;50.690;4.400;2022-07-22T11:59:33;23.60;54.80
21493;DHT22;10908;50.690;4.400;2022-07-22T12:02:00;23.70;55.20
21493;DHT22;10908;50.690;4.400;2022-07-22T12:04:27;24.00;55.80
21493;DHT22;10908;50.690;4.400;2022-07-22T12:06:54;24.30;54.10
21493;DHT22;10908;50.690;4.400;2022-07-22T12:09:25;24.30;54.80
21493;DHT22;10908;50.690;4.400;2022-07-22T12:11:55;24.30;53.70
21493;DHT22;10908;50.690;4.400;2022-07-22T12:14:25;24.30;53.10
21493;DHT22;10908;50.690;4.400;2022-07-22T12:16:58;24.40;53.10
21493;DHT22;10908;50.690;4.400;2022-07-22T12:19:25;24.40;54.20
21493;DHT22;10908;50.690;4.400;2022-07-22T12:22:09;24.50;52.60
21493;DHT22;10908;50.690;4.400;2022-07-22T12:24:40;24.40;53.70
21493;DHT22;10908;50.690;4.400;2022-07-22T12:27:11;24.50;54.20
21493;DHT22;10908;50.690;4.400;2022-07-22T12:32:08;24.60;52.70
21493;DHT22;10908;50.690;4.400;2022-07-22T12:34:46;24.20;53.40
21493;DHT22;10908;50.690;4.400;2022-07-22T12:39:56;23.80;54.00
21493;DHT22;10908;50.690;4.400;2022-07-22T12:42:23;23.30;55.10
21493;DHT22;10908;50.690;4.400;2022-07-22T12:52:49;23.60;55.30
21493;DHT22;10908;50.690;4.400;2022-07-22T12:55:16;23.40;54.60
21493;DHT22;10908;50.690;4.400;2022-07-22T12:57:42;23.30;55.40
21493;DHT22;10908;50.690;4.400;2022-07-22T13:00:08;23.30;56.40
21493;DHT22;10908;50.690;4.400;2022-07-22T13:02:34;23.50;55.90
21493;DHT22;10908;50.690;4.400;2022-07-22T13:05:00;23.70;53.90
21493;DHT22;10908;50.690;4.400;2022-07-22T13:07:25;23.80;54.40
21493;DHT22;10908;50.690;4.400;2022-07-22T13:09:51;23.60;54.90
21493;DHT22;10908;50.690;4.400;2022-07-22T13:12:16;23.80;55.00
21493;DHT22;10908;50.690;4.400;2022-07-22T13:14:42;23.80;54.90
21493;DHT22;10908;50.690;4.400;2022-07-22T13:17:08;23.60;55.10
21493;DHT22;10908;50.690;4.400;2022-07-22T13:19:33;23.50;55.50
21493;DHT22;10908;50.690;4.400;2022-07-22T13:21:59;23.50;54.30
21493;DHT22;10908;50.690;4.400;2022-07-22T13:24:24;23.10;56.80
21493;DHT22;10908;50.690;4.400;2022-07-22T13:26:50;23.30;56.40
21493;DHT22;10908;50.690;4.400;2022-07-22T13:29:16;23.50;56.10
21493;DHT22;10908;50.690;4.400;2022-07-22T13:31:42;23.70;55.10
21493;DHT22;10908;50.690;4.400;2022-07-22T13:34:08;23.90;55.10
21493;DHT22;10908;50.690;4.400;2022-07-22T13:36:34;24.10;55.90
21493;DHT22;10908;50.690;4.400;2022-07-22T13:38:59;24.30;54.90
21493;DHT22;10908;50.690;4.400;2022-07-22T13:41:25;24.30;54.80
21493;DHT22;10908;50.690;4.400;2022-07-22T13:43:51;24.10;54.80
21493;DHT22;10908;50.690;4.400;2022-07-22T13:46:18;23.90;54.90
21493;DHT22;10908;50.690;4.400;2022-07-22T13:48:44;23.70;55.30
21493;DHT22;10908;50.690;4.400;2022-07-22T13:51:11;23.90;56.20
21493;DHT22;10908;50.690;4.400;2022-07-22T13:53:37;23.90;55.40
21493;DHT22;10908;50.690;4.400;2022-07-22T13:56:03;23.90;55.70
21493;DHT22;10908;50.690;4.400;2022-07-22T13:58:29;23.80;55.70
21493;DHT22;10908;50.690;4.400;2022-07-22T14:00:56;23.80;55.70
21493;DHT22;10908;50.690;4.400;2022-07-22T14:03:21;23.80;54.50
21493;DHT22;10908;50.690;4.400;2022-07-22T14:05:47;23.90;55.20
21493;DHT22;10908;50.690;4.400;2022-07-22T14:08:13;23.70;55.00
21493;DHT22;10908;50.690;4.400;2022-07-22T14:10:38;23.80;55.30
21493;DHT22;10908;50.690;4.400;2022-07-22T14:13:04;23.80;55.00
21493;DHT22;10908;50.690;4.400;2022-07-22T14:15:32;23.60;55.20
21493;DHT22;10908;50.690;4.400;2022-07-22T14:17:57;23.80;55.40
21493;DHT22;10908;50.690;4.400;2022-07-22T14:20:23;23.90;55.50
21493;DHT22;10908;50.690;4.400;2022-07-22T14:22:49;23.80;55.00
21493;DHT22;10908;50.690;4.400;2022-07-22T14:25:14;23.70;56.00
21493;DHT22;10908;50.690;4.400;2022-07-22T14:27:40;23.60;55.90
21493;DHT22;10908;50.690;4.400;2022-07-22T14:30:06;23.70;55.50
21493;DHT22;10908;50.690;4.400;2022-07-22T14:32:32;23.50;56.00
21493;DHT22;10908;50.690;4.400;2022-07-22T14:34:57;23.40;56.10
21493;DHT22;10908;50.690;4.400;2022-07-22T14:37:23;23.10;56.50
21493;DHT22;10908;50.690;4.400;2022-07-22T14:39:49;23.10;57.40
21493;DHT22;10908;50.690;4.400;2022-07-22T14:42:14;22.90;58.50
21493;DHT22;10908;50.690;4.400;2022-07-22T14:44:40;23.00;58.60
21493;DHT22;10908;50.690;4.400;2022-07-22T14:47:06;23.00;58.00
21493;DHT22;10908;50.690;4.400;2022-07-22T14:49:31;23.00;57.50
21493;DHT22;10908;50.690;4.400;2022-07-22T14:51:57;23.00;58.00
21493;DHT22;10908;50.690;4.400;2022-07-22T14:54:23;22.80;58.30
21493;DHT22;10908;50.690;4.400;2022-07-22T14:56:48;22.80;58.40
21493;DHT22;10908;50.690;4.400;2022-07-22T14:59:14;22.90;58.10
21493;DHT22;10908;50.690;4.400;2022-07-22T15:01:40;22.80;58.60
21493;DHT22;10908;50.690;4.400;2022-07-22T15:04:05;22.90;58.20
21493;DHT22;10908;50.690;4.400;2022-07-22T15:06:31;22.90;58.70
21493;DHT22;10908;50.690;4.400;2022-07-22T15:08:57;22.80;58.90
21493;DHT22;10908;50.690;4.400;2022-07-22T15:11:22;22.90;58.60
21493;DHT22;10908;50.690;4.400;2022-07-22T15:13:48;22.90;58.30
21493;DHT22;10908;50.690;4.400;2022-07-22T15:16:14;22.90;58.40
21493;DHT22;10908;50.690;4.400;2022-07-22T15:18:40;22.90;59.10
21493;DHT22;10908;50.690;4.400;2022-07-22T15:21:05;22.90;58.90
21493;DHT22;10908;50.690;4.400;2022-07-22T15:23:31;22.90;58.40
21493;DHT22;10908;50.690;4.400;2022-07-22T15:25:58;23.00;58.60
21493;DHT22;10908;50.690;4.400;2022-07-22T15:28:25;23.10;58.30
21493;DHT22;10908;50.690;4.400;2022-07-22T15:30:52;23.10;58.00
21493;DHT22;10908;50.690;4.400;2022-07-22T15:33:17;23.10;58.10
21493;DHT22;10908;50.690;4.400;2022-07-22T15:35:45;23.00;58.20
21493;DHT22;10908;50.690;4.400;2022-07-22T15:38:11;22.90;58.00
21493;DHT22;10908;50.690;4.400;2022-07-22T15:40:37;22.80;58.30
21493;DHT22;10908;50.690;4.400;2022-07-22T15:46:38;22.70;59.40
21493;DHT22;10908;50.690;4.400;2022-07-22T15:49:04;22.60;59.10
21493;DHT22;10908;50.690;4.400;2022-07-22T15:51:29;22.60;60.40
21493;DHT22;10908;50.690;4.400;2022-07-22T15:53:55;22.80;59.80
21493;DHT22;10908;50.690;4.400;2022-07-22T15:56:21;22.80;58.60
21493;DHT22;10908;50.690;4.400;2022-07-22T15:58:46;22.80;58.60